Terminal Aerodrome Forecast
Issued by NWS

Home | Current Version | Previous Version | Text Only | Print | Product List | Glossary On
Versions: 1 2 3 4 5 6 7 8 9 10 11 12 13 14 15 16
000
FTUS46 KSGX 252337
TAFCRQ
TAF
KCRQ 252337Z 2600/2624 24008KT P6SM SCT030
     FM260300 21005KT P6SM BKN025
     FM260700 21005KT P6SM -DZ OVC020
     FM261700 21005KT P6SM SCT020 OVC035
     FM262000 25008KT P6SM BKN035=

USA.gov is the U.S. government's official web portal to all federal, state and local government web resources and services.